sensor_id;sensor_type;location;lat;lon;timestamp;temperature;humidity
26051;DHT22;13825;53.496;10.020;2023-12-14T00:01:13;3.70;99.90
26051;DHT22;13825;53.496;10.020;2023-12-14T00:03:40;3.70;99.90
26051;DHT22;13825;53.496;10.020;2023-12-14T00:06:11;3.70;99.90
26051;DHT22;13825;53.496;10.020;2023-12-14T00:08:39;3.70;99.90
26051;DHT22;13825;53.496;10.020;2023-12-14T00:11:07;3.80;99.90
26051;DHT22;13825;53.496;10.020;2023-12-14T00:13:34;3.70;99.90
26051;DHT22;13825;53.496;10.020;2023-12-14T00:16:02;3.80;99.90
26051;DHT22;13825;53.496;10.020;2023-12-14T00:18:29;3.80;99.90
26051;DHT22;13825;53.496;10.020;2023-12-14T00:20:56;3.80;99.90
26051;DHT22;13825;53.496;10.020;2023-12-14T00:23:24;3.80;99.90
26051;DHT22;13825;53.496;10.020;2023-12-14T00:25:51;3.80;99.90
26051;DHT22;13825;53.496;10.020;2023-12-14T00:28:18;3.80;99.90
26051;DHT22;13825;53.496;10.020;2023-12-14T00:30:45;3.80;99.90
26051;DHT22;13825;53.496;10.020;2023-12-14T00:33:12;3.90;99.90
26051;DHT22;13825;53.496;10.020;2023-12-14T00:35:41;3.90;99.90
26051;DHT22;13825;53.496;10.020;2023-12-14T00:38:08;3.90;99.90
26051;DHT22;13825;53.496;10.020;2023-12-14T00:40:37;3.90;99.90
26051;DHT22;13825;53.496;10.020;2023-12-14T00:43:04;3.90;99.90
26051;DHT22;13825;53.496;10.020;2023-12-14T00:45:31;3.90;99.90
26051;DHT22;13825;53.496;10.020;2023-12-14T00:47:58;3.90;99.90
26051;DHT22;13825;53.496;10.020;2023-12-14T00:50:25;3.90;99.90
26051;DHT22;13825;53.496;10.020;2023-12-14T00:52:52;3.90;99.90
26051;DHT22;13825;53.496;10.020;2023-12-14T00:55:19;3.90;99.90
26051;DHT22;13825;53.496;10.020;2023-12-14T00:57:50;4.00;99.90
26051;DHT22;13825;53.496;10.020;2023-12-14T01:00:18;3.90;99.90
26051;DHT22;13825;53.496;10.020;2023-12-14T01:02:46;4.00;99.90
26051;DHT22;13825;53.496;10.020;2023-12-14T01:05:13;4.20;99.90
26051;DHT22;13825;53.496;10.020;2023-12-14T01:07:40;4.00;99.90
26051;DHT22;13825;53.496;10.020;2023-12-14T01:10:08;4.00;99.90
26051;DHT22;13825;53.496;10.020;2023-12-14T01:12:35;4.00;99.90
26051;DHT22;13825;53.496;10.020;2023-12-14T01:15:04;4.00;99.90
26051;DHT22;13825;53.496;10.020;2023-12-14T01:17:32;4.00;99.90
26051;DHT22;13825;53.496;10.020;2023-12-14T01:20:04;4.00;99.90
26051;DHT22;13825;53.496;10.020;2023-12-14T01:22:31;4.00;99.90
26051;DHT22;13825;53.496;10.020;2023-12-14T01:24:58;4.00;99.90
26051;DHT22;13825;53.496;10.020;2023-12-14T01:27:25;4.10;99.90
26051;DHT22;13825;53.496;10.020;2023-12-14T01:29:52;4.00;99.90
26051;DHT22;13825;53.496;10.020;2023-12-14T01:32:21;4.00;99.90
26051;DHT22;13825;53.496;10.020;2023-12-14T01:34:48;4.00;99.90
26051;DHT22;13825;53.496;10.020;2023-12-14T01:37:17;4.10;99.90
26051;DHT22;13825;53.496;10.020;2023-12-14T01:39:45;4.00;99.90
26051;DHT22;13825;53.496;10.020;2023-12-14T01:42:12;4.00;99.90
26051;DHT22;13825;53.496;10.020;2023-12-14T01:44:39;4.10;99.90
26051;DHT22;13825;53.496;10.020;2023-12-14T01:47:06;4.10;99.90
26051;DHT22;13825;53.496;10.020;2023-12-14T01:49:34;4.00;99.90
26051;DHT22;13825;53.496;10.020;2023-12-14T01:52:01;4.10;99.90
26051;DHT22;13825;53.496;10.020;2023-12-14T01:54:28;4.10;99.90
26051;DHT22;13825;53.496;10.020;2023-12-14T01:56:55;4.20;99.90
26051;DHT22;13825;53.496;10.020;2023-12-14T01:59:22;4.20;99.90
26051;DHT22;13825;53.496;10.020;2023-12-14T02:01:54;4.20;99.90
26051;DHT22;13825;53.496;10.020;2023-12-14T02:04:23;4.20;99.90
26051;DHT22;13825;53.496;10.020;2023-12-14T02:06:52;4.10;99.90
26051;DHT22;13825;53.496;10.020;2023-12-14T02:09:19;4.20;99.90
26051;DHT22;13825;53.496;10.020;2023-12-14T02:11:46;4.20;99.90
26051;DHT22;13825;53.496;10.020;2023-12-14T02:14:13;4.20;99.90
26051;DHT22;13825;53.496;10.020;2023-12-14T02:16:40;4.20;99.90
26051;DHT22;13825;53.496;10.020;2023-12-14T02:19:07;4.10;99.90
26051;DHT22;13825;53.496;10.020;2023-12-14T02:21:34;4.10;99.90
26051;DHT22;13825;53.496;10.020;2023-12-14T02:24:03;4.20;99.90
26051;DHT22;13825;53.496;10.020;2023-12-14T02:26:30;4.10;99.90
26051;DHT22;13825;53.496;10.020;2023-12-14T02:28:57;4.10;99.90
26051;DHT22;13825;53.496;10.020;2023-12-14T02:31:24;4.10;99.90
26051;DHT22;13825;53.496;10.020;2023-12-14T02:33:51;4.20;99.90
26051;DHT22;13825;53.496;10.020;2023-12-14T02:36:18;4.10;99.90
26051;DHT22;13825;53.496;10.020;2023-12-14T02:38:45;4.10;99.90
26051;DHT22;13825;53.496;10.020;2023-12-14T02:41:17;4.10;99.90
26051;DHT22;13825;53.496;10.020;2023-12-14T02:43:44;4.10;99.90
26051;DHT22;13825;53.496;10.020;2023-12-14T02:46:11;4.10;99.90
26051;DHT22;13825;53.496;10.020;2023-12-14T02:48:41;4.20;99.90
26051;DHT22;13825;53.496;10.020;2023-12-14T02:51:12;4.20;99.90
26051;DHT22;13825;53.496;10.020;2023-12-14T02:53:40;4.20;99.90
26051;DHT22;13825;53.496;10.020;2023-12-14T02:56:09;4.20;99.90
26051;DHT22;13825;53.496;10.020;2023-12-14T02:58:37;4.20;99.90
26051;DHT22;13825;53.496;10.020;2023-12-14T03:01:04;4.20;99.90
26051;DHT22;13825;53.496;10.020;2023-12-14T03:03:31;4.20;99.90
26051;DHT22;13825;53.496;10.020;2023-12-14T03:05:58;4.20;99.90
26051;DHT22;13825;53.496;10.020;2023-12-14T03:08:25;4.20;99.90
26051;DHT22;13825;53.496;10.020;2023-12-14T03:10:52;4.10;99.90
26051;DHT22;13825;53.496;10.020;2023-12-14T03:13:19;4.10;99.90
26051;DHT22;13825;53.496;10.020;2023-12-14T03:15:48;4.10;99.90
26051;DHT22;13825;53.496;10.020;2023-12-14T03:18:15;4.10;99.90
26051;DHT22;13825;53.496;10.020;2023-12-14T03:20:42;4.10;99.90
26051;DHT22;13825;53.496;10.020;2023-12-14T03:23:09;4.10;99.90
26051;DHT22;13825;53.496;10.020;2023-12-14T03:25:36;4.10;99.90
26051;DHT22;13825;53.496;10.020;2023-12-14T03:28:03;4.10;99.90
26051;DHT22;13825;53.496;10.020;2023-12-14T03:30:30;4.10;99.90
26051;DHT22;13825;53.496;10.020;2023-12-14T03:33:01;4.10;99.90
26051;DHT22;13825;53.496;10.020;2023-12-14T03:35:30;4.10;99.90
26051;DHT22;13825;53.496;10.020;2023-12-14T03:37:57;4.20;99.90
26051;DHT22;13825;53.496;10.020;2023-12-14T03:40:26;4.20;99.90
26051;DHT22;13825;53.496;10.020;2023-12-14T03:42:54;4.20;99.90
26051;DHT22;13825;53.496;10.020;2023-12-14T03:45:21;4.20;99.90
26051;DHT22;13825;53.496;10.020;2023-12-14T03:47:48;4.20;99.90
26051;DHT22;13825;53.496;10.020;2023-12-14T03:50:16;4.20;99.90
26051;DHT22;13825;53.496;10.020;2023-12-14T03:52:43;4.20;99.90
26051;DHT22;13825;53.496;10.020;2023-12-14T03:55:14;4.10;99.90
26051;DHT22;13825;53.496;10.020;2023-12-14T03:57:41;4.20;99.90
26051;DHT22;13825;53.496;10.020;2023-12-14T04:00:10;4.20;99.90
26051;DHT22;13825;53.496;10.020;2023-12-14T04:02:38;4.10;99.90
26051;DHT22;13825;53.496;10.020;2023-12-14T04:05:05;4.10;99.90
26051;DHT22;13825;53.496;10.020;2023-12-14T04:07:37;4.10;99.90
26051;DHT22;13825;53.496;10.020;2023-12-14T04:10:06;4.10;99.90
26051;DHT22;13825;53.496;10.020;2023-12-14T04:12:34;4.10;99.90
26051;DHT22;13825;53.496;10.020;2023-12-14T04:15:01;4.00;99.90
26051;DHT22;13825;53.496;10.020;2023-12-14T04:17:28;4.00;99.90
26051;DHT22;13825;53.496;10.020;2023-12-14T04:19:55;4.00;99.90
26051;DHT22;13825;53.496;10.020;2023-12-14T04:22:22;4.10;99.90
26051;DHT22;13825;53.496;10.020;2023-12-14T04:24:51;4.10;99.90
26051;DHT22;13825;53.496;10.020;2023-12-14T04:27:18;4.10;99.90
26051;DHT22;13825;53.496;10.020;2023-12-14T04:29:45;4.10;99.90
26051;DHT22;13825;53.496;10.020;2023-12-14T04:32:12;4.10;99.90
26051;DHT22;13825;53.496;10.020;2023-12-14T04:34:39;4.00;99.90
26051;DHT22;13825;53.496;10.020;2023-12-14T04:37:06;4.00;99.90
26051;DHT22;13825;53.496;10.020;2023-12-14T04:39:33;4.00;99.90
26051;DHT22;13825;53.496;10.020;2023-12-14T04:42:01;4.00;99.90
26051;DHT22;13825;53.496;10.020;2023-12-14T04:44:29;4.00;99.90
26051;DHT22;13825;53.496;10.020;2023-12-14T04:46:56;4.00;99.90
26051;DHT22;13825;53.496;10.020;2023-12-14T04:49:23;4.00;99.90
26051;DHT22;13825;53.496;10.020;2023-12-14T04:51:50;4.00;99.90
26051;DHT22;13825;53.496;10.020;2023-12-14T04:54:17;4.00;99.90
26051;DHT22;13825;53.496;10.020;2023-12-14T04:56:45;4.00;99.90
26051;DHT22;13825;53.496;10.020;2023-12-14T04:59:17;4.00;99.90
26051;DHT22;13825;53.496;10.020;2023-12-14T05:01:46;4.00;99.90
26051;DHT22;13825;53.496;10.020;2023-12-14T05:04:12;4.00;99.90
26051;DHT22;13825;53.496;10.020;2023-12-14T05:06:40;4.10;99.90
26051;DHT22;13825;53.496;10.020;2023-12-14T05:09:07;4.10;99.90
26051;DHT22;13825;53.496;10.020;2023-12-14T05:11:37;4.10;99.90
26051;DHT22;13825;53.496;10.020;2023-12-14T05:14:05;4.10;99.90
26051;DHT22;13825;53.496;10.020;2023-12-14T05:16:35;4.10;99.90
26051;DHT22;13825;53.496;10.020;2023-12-14T05:19:02;4.30;99.90
26051;DHT22;13825;53.496;10.020;2023-12-14T05:21:29;4.10;99.90
26051;DHT22;13825;53.496;10.020;2023-12-14T05:23:56;4.10;99.90
26051;DHT22;13825;53.496;10.020;2023-12-14T05:26:24;4.10;99.90
26051;DHT22;13825;53.496;10.020;2023-12-14T05:28:51;4.10;99.90
26051;DHT22;13825;53.496;10.020;2023-12-14T05:31:19;4.10;99.90
26051;DHT22;13825;53.496;10.020;2023-12-14T05:33:47;4.10;99.90
26051;DHT22;13825;53.496;10.020;2023-12-14T05:36:14;4.10;99.90
26051;DHT22;13825;53.496;10.020;2023-12-14T05:38:41;4.10;99.90
26051;DHT22;13825;53.496;10.020;2023-12-14T05:41:09;4.10;99.90
26051;DHT22;13825;53.496;10.020;2023-12-14T05:43:36;4.20;99.90
26051;DHT22;13825;53.496;10.020;2023-12-14T05:46:03;4.20;99.90
26051;DHT22;13825;53.496;10.020;2023-12-14T05:48:30;4.20;99.90
26051;DHT22;13825;53.496;10.020;2023-12-14T05:51:02;4.20;99.90
26051;DHT22;13825;53.496;10.020;2023-12-14T05:53:32;4.20;99.90
26051;DHT22;13825;53.496;10.020;2023-12-14T05:56:06;4.30;99.90
26051;DHT22;13825;53.496;10.020;2023-12-14T05:58:33;4.20;99.90
26051;DHT22;13825;53.496;10.020;2023-12-14T06:01:00;4.20;99.90
26051;DHT22;13825;53.496;10.020;2023-12-14T06:03:27;4.20;99.90
26051;DHT22;13825;53.496;10.020;2023-12-14T06:06:04;4.30;99.90
26051;DHT22;13825;53.496;10.020;2023-12-14T06:08:31;4.20;99.90
26051;DHT22;13825;53.496;10.020;2023-12-14T06:10:58;4.20;99.90
26051;DHT22;13825;53.496;10.020;2023-12-14T06:13:27;4.10;99.90
26051;DHT22;13825;53.496;10.020;2023-12-14T06:15:54;4.10;99.90
26051;DHT22;13825;53.496;10.020;2023-12-14T06:18:21;4.10;99.90
26051;DHT22;13825;53.496;10.020;2023-12-14T06:20:48;4.20;99.90
26051;DHT22;13825;53.496;10.020;2023-12-14T06:23:19;4.20;99.90
26051;DHT22;13825;53.496;10.020;2023-12-14T06:25:47;4.30;99.90
26051;DHT22;13825;53.496;10.020;2023-12-14T06:28:17;4.30;99.90
26051;DHT22;13825;53.496;10.020;2023-12-14T06:30:44;4.30;99.90
26051;DHT22;13825;53.496;10.020;2023-12-14T06:33:11;4.30;99.90
26051;DHT22;13825;53.496;10.020;2023-12-14T06:35:38;4.20;99.90
26051;DHT22;13825;53.496;10.020;2023-12-14T06:38:05;4.20;99.90
26051;DHT22;13825;53.496;10.020;2023-12-14T06:40:36;4.20;99.90
26051;DHT22;13825;53.496;10.020;2023-12-14T06:43:05;4.30;99.90
26051;DHT22;13825;53.496;10.020;2023-12-14T06:45:32;4.30;99.90
26051;DHT22;13825;53.496;10.020;2023-12-14T06:47:59;4.30;99.90
26051;DHT22;13825;53.496;10.020;2023-12-14T06:50:26;4.40;99.90
26051;DHT22;13825;53.496;10.020;2023-12-14T06:52:55;4.40;99.90
26051;DHT22;13825;53.496;10.020;2023-12-14T06:55:24;4.40;99.90
26051;DHT22;13825;53.496;10.020;2023-12-14T06:57:52;4.30;99.90
26051;DHT22;13825;53.496;10.020;2023-12-14T07:00:19;4.30;99.90
26051;DHT22;13825;53.496;10.020;2023-12-14T07:02:46;4.40;99.90
26051;DHT22;13825;53.496;10.020;2023-12-14T07:05:14;4.40;99.90
26051;DHT22;13825;53.496;10.020;2023-12-14T07:07:41;4.40;99.90
26051;DHT22;13825;53.496;10.020;2023-12-14T07:10:11;4.40;99.90
26051;DHT22;13825;53.496;10.020;2023-12-14T07:12:38;4.40;99.90
26051;DHT22;13825;53.496;10.020;2023-12-14T07:15:07;4.40;99.90
26051;DHT22;13825;53.496;10.020;2023-12-14T07:17:34;4.30;99.90
26051;DHT22;13825;53.496;10.020;2023-12-14T07:20:05;4.40;99.90
26051;DHT22;13825;53.496;10.020;2023-12-14T07:22:32;4.30;99.90
26051;DHT22;13825;53.496;10.020;2023-12-14T07:24:59;4.30;99.90
26051;DHT22;13825;53.496;10.020;2023-12-14T07:27:27;4.30;99.90
26051;DHT22;13825;53.496;10.020;2023-12-14T07:29:54;4.20;99.90
26051;DHT22;13825;53.496;10.020;2023-12-14T07:32:25;4.30;99.90
26051;DHT22;13825;53.496;10.020;2023-12-14T07:34:52;4.20;99.90
26051;DHT22;13825;53.496;10.020;2023-12-14T07:37:19;4.20;99.90
26051;DHT22;13825;53.496;10.020;2023-12-14T07:39:46;4.10;99.90
26051;DHT22;13825;53.496;10.020;2023-12-14T07:42:13;4.20;99.90
26051;DHT22;13825;53.496;10.020;2023-12-14T07:44:45;4.20;99.90
26051;DHT22;13825;53.496;10.020;2023-12-14T07:47:12;4.20;99.90
26051;DHT22;13825;53.496;10.020;2023-12-14T07:49:40;4.20;99.90
26051;DHT22;13825;53.496;10.020;2023-12-14T07:52:07;4.30;99.90
26051;DHT22;13825;53.496;10.020;2023-12-14T07:54:35;4.20;99.90
26051;DHT22;13825;53.496;10.020;2023-12-14T07:57:02;4.20;99.90
26051;DHT22;13825;53.496;10.020;2023-12-14T07:59:29;4.20;99.90
26051;DHT22;13825;53.496;10.020;2023-12-14T08:01:56;4.20;99.90
26051;DHT22;13825;53.496;10.020;2023-12-14T08:04:24;4.20;99.90
26051;DHT22;13825;53.496;10.020;2023-12-14T08:06:53;4.20;99.90
26051;DHT22;13825;53.496;10.020;2023-12-14T08:09:20;4.10;99.90
26051;DHT22;13825;53.496;10.020;2023-12-14T08:11:47;4.20;99.90
26051;DHT22;13825;53.496;10.020;2023-12-14T08:14:15;4.20;99.90
26051;DHT22;13825;53.496;10.020;2023-12-14T08:16:42;4.20;99.90
26051;DHT22;13825;53.496;10.020;2023-12-14T08:19:09;4.30;99.90
26051;DHT22;13825;53.496;10.020;2023-12-14T08:21:36;4.30;99.90
26051;DHT22;13825;53.496;10.020;2023-12-14T08:24:05;4.30;99.90
26051;DHT22;13825;53.496;10.020;2023-12-14T08:26:35;4.20;99.90
26051;DHT22;13825;53.496;10.020;2023-12-14T08:29:02;4.30;99.90
26051;DHT22;13825;53.496;10.020;2023-12-14T08:31:29;4.30;99.90
26051;DHT22;13825;53.496;10.020;2023-12-14T08:33:56;4.30;99.90
26051;DHT22;13825;53.496;10.020;2023-12-14T08:36:29;4.30;99.90
26051;DHT22;13825;53.496;10.020;2023-12-14T08:38:57;4.30;99.90
26051;DHT22;13825;53.496;10.020;2023-12-14T08:41:25;4.30;99.90
26051;DHT22;13825;53.496;10.020;2023-12-14T08:43:56;4.30;99.90
26051;DHT22;13825;53.496;10.020;2023-12-14T08:46:26;4.30;99.90
26051;DHT22;13825;53.496;10.020;2023-12-14T08:48:53;4.40;99.90
26051;DHT22;13825;53.496;10.020;2023-12-14T08:51:20;4.30;99.90
26051;DHT22;13825;53.496;10.020;2023-12-14T08:53:50;4.30;99.90
26051;DHT22;13825;53.496;10.020;2023-12-14T08:56:16;4.30;99.90
26051;DHT22;13825;53.496;10.020;2023-12-14T08:58:45;4.40;99.90
26051;DHT22;13825;53.496;10.020;2023-12-14T09:01:17;4.30;99.90
26051;DHT22;13825;53.496;10.020;2023-12-14T09:03:45;4.40;99.90
26051;DHT22;13825;53.496;10.020;2023-12-14T09:06:17;4.30;99.90
26051;DHT22;13825;53.496;10.020;2023-12-14T09:08:44;4.40;99.90
26051;DHT22;13825;53.496;10.020;2023-12-14T09:11:11;4.40;99.90
26051;DHT22;13825;53.496;10.020;2023-12-14T09:13:38;4.40;99.90
26051;DHT22;13825;53.496;10.020;2023-12-14T09:16:07;4.40;99.90
26051;DHT22;13825;53.496;10.020;2023-12-14T09:18:35;4.30;99.90
26051;DHT22;13825;53.496;10.020;2023-12-14T09:21:03;4.40;99.90
26051;DHT22;13825;53.496;10.020;2023-12-14T09:23:31;4.30;99.90
26051;DHT22;13825;53.496;10.020;2023-12-14T09:25:58;4.40;99.90
26051;DHT22;13825;53.496;10.020;2023-12-14T09:28:26;4.40;99.90
26051;DHT22;13825;53.496;10.020;2023-12-14T09:30:53;4.40;99.90
26051;DHT22;13825;53.496;10.020;2023-12-14T09:33:21;4.50;99.90
26051;DHT22;13825;53.496;10.020;2023-12-14T09:35:48;4.50;99.90
26051;DHT22;13825;53.496;10.020;2023-12-14T09:38:15;4.50;99.90
26051;DHT22;13825;53.496;10.020;2023-12-14T09:40:44;4.60;99.90
26051;DHT22;13825;53.496;10.020;2023-12-14T09:43:11;4.60;99.90
26051;DHT22;13825;53.496;10.020;2023-12-14T09:45:40;4.60;99.90
26051;DHT22;13825;53.496;10.020;2023-12-14T09:48:11;4.60;99.90
26051;DHT22;13825;53.496;10.020;2023-12-14T09:50:40;4.70;99.90
26051;DHT22;13825;53.496;10.020;2023-12-14T09:53:08;4.70;99.90
26051;DHT22;13825;53.496;10.020;2023-12-14T09:55:35;4.70;99.90
26051;DHT22;13825;53.496;10.020;2023-12-14T09:58:01;4.70;99.90
26051;DHT22;13825;53.496;10.020;2023-12-14T10:00:36;4.70;99.90
26051;DHT22;13825;53.496;10.020;2023-12-14T10:03:24;4.80;99.90
26051;DHT22;13825;53.496;10.020;2023-12-14T10:05:55;4.90;99.90
26051;DHT22;13825;53.496;10.020;2023-12-14T10:08:23;4.90;99.90
26051;DHT22;13825;53.496;10.020;2023-12-14T10:10:52;5.00;99.90
26051;DHT22;13825;53.496;10.020;2023-12-14T10:13:20;5.00;99.90
26051;DHT22;13825;53.496;10.020;2023-12-14T10:15:48;5.00;99.90
26051;DHT22;13825;53.496;10.020;2023-12-14T10:18:22;5.00;99.90
26051;DHT22;13825;53.496;10.020;2023-12-14T10:20:50;5.00;99.90
26051;DHT22;13825;53.496;10.020;2023-12-14T10:23:19;5.30;99.90
26051;DHT22;13825;53.496;10.020;2023-12-14T10:25:49;5.10;99.90
26051;DHT22;13825;53.496;10.020;2023-12-14T10:28:17;5.10;99.90
26051;DHT22;13825;53.496;10.020;2023-12-14T10:30:44;5.10;99.90
26051;DHT22;13825;53.496;10.020;2023-12-14T10:33:11;5.20;99.90
26051;DHT22;13825;53.496;10.020;2023-12-14T10:35:40;5.20;99.90
26051;DHT22;13825;53.496;10.020;2023-12-14T10:38:08;5.10;99.90
26051;DHT22;13825;53.496;10.020;2023-12-14T10:40:38;5.10;99.90
26051;DHT22;13825;53.496;10.020;2023-12-14T10:43:10;5.20;99.90
26051;DHT22;13825;53.496;10.020;2023-12-14T10:45:39;5.00;99.90
26051;DHT22;13825;53.496;10.020;2023-12-14T10:48:09;5.00;99.90
26051;DHT22;13825;53.496;10.020;2023-12-14T10:50:39;5.30;99.90
26051;DHT22;13825;53.496;10.020;2023-12-14T10:53:09;5.10;99.90
26051;DHT22;13825;53.496;10.020;2023-12-14T10:55:43;5.00;99.90
26051;DHT22;13825;53.496;10.020;2023-12-14T10:58:11;4.90;99.90
26051;DHT22;13825;53.496;10.020;2023-12-14T11:00:39;4.80;99.90
26051;DHT22;13825;53.496;10.020;2023-12-14T11:03:06;4.80;99.90
26051;DHT22;13825;53.496;10.020;2023-12-14T11:05:35;4.90;99.90
26051;DHT22;13825;53.496;10.020;2023-12-14T11:08:03;5.00;99.90
26051;DHT22;13825;53.496;10.020;2023-12-14T11:10:37;5.00;99.90
26051;DHT22;13825;53.496;10.020;2023-12-14T11:13:09;5.00;99.90
26051;DHT22;13825;53.496;10.020;2023-12-14T11:15:39;5.00;99.90
26051;DHT22;13825;53.496;10.020;2023-12-14T11:18:22;5.10;99.90
26051;DHT22;13825;53.496;10.020;2023-12-14T11:20:57;5.10;99.90
26051;DHT22;13825;53.496;10.020;2023-12-14T11:23:31;5.20;99.90
26051;DHT22;13825;53.496;10.020;2023-12-14T11:26:00;5.30;99.90
26051;DHT22;13825;53.496;10.020;2023-12-14T11:28:34;5.10;99.90
26051;DHT22;13825;53.496;10.020;2023-12-14T11:31:04;5.10;99.90
26051;DHT22;13825;53.496;10.020;2023-12-14T11:33:33;5.10;99.90
26051;DHT22;13825;53.496;10.020;2023-12-14T11:36:03;5.20;99.90
26051;DHT22;13825;53.496;10.020;2023-12-14T11:38:30;5.10;99.90
26051;DHT22;13825;53.496;10.020;2023-12-14T11:40:58;5.20;99.90
26051;DHT22;13825;53.496;10.020;2023-12-14T11:43:25;5.20;99.90
26051;DHT22;13825;53.496;10.020;2023-12-14T11:45:54;5.20;99.90
26051;DHT22;13825;53.496;10.020;2023-12-14T11:48:23;5.20;99.90
26051;DHT22;13825;53.496;10.020;2023-12-14T11:50:51;5.20;99.90
26051;DHT22;13825;53.496;10.020;2023-12-14T11:53:18;5.10;99.90
26051;DHT22;13825;53.496;10.020;2023-12-14T11:55:45;5.20;99.90
26051;DHT22;13825;53.496;10.020;2023-12-14T11:58:12;5.20;99.90
26051;DHT22;13825;53.496;10.020;2023-12-14T12:00:40;5.20;99.90
26051;DHT22;13825;53.496;10.020;2023-12-14T12:03:10;5.10;99.90
26051;DHT22;13825;53.496;10.020;2023-12-14T12:05:39;5.20;99.90
26051;DHT22;13825;53.496;10.020;2023-12-14T12:08:06;5.10;99.90
26051;DHT22;13825;53.496;10.020;2023-12-14T12:10:34;5.10;99.90
26051;DHT22;13825;53.496;10.020;2023-12-14T12:13:06;5.10;99.90
26051;DHT22;13825;53.496;10.020;2023-12-14T12:15:34;5.00;99.90
26051;DHT22;13825;53.496;10.020;2023-12-14T12:18:04;5.00;99.90
26051;DHT22;13825;53.496;10.020;2023-12-14T12:20:33;5.00;99.90
26051;DHT22;13825;53.496;10.020;2023-12-14T12:23:01;5.00;99.90
26051;DHT22;13825;53.496;10.020;2023-12-14T12:25:28;5.00;99.90
26051;DHT22;13825;53.496;10.020;2023-12-14T12:27:57;5.20;99.90
26051;DHT22;13825;53.496;10.020;2023-12-14T12:30:24;5.20;99.90
26051;DHT22;13825;53.496;10.020;2023-12-14T12:32:51;5.20;99.90
26051;DHT22;13825;53.496;10.020;2023-12-14T12:35:18;5.20;99.90
26051;DHT22;13825;53.496;10.020;2023-12-14T12:37:47;5.20;99.90
26051;DHT22;13825;53.496;10.020;2023-12-14T12:40:19;5.20;99.90
26051;DHT22;13825;53.496;10.020;2023-12-14T12:42:46;5.30;99.90
26051;DHT22;13825;53.496;10.020;2023-12-14T12:45:15;5.20;99.90
26051;DHT22;13825;53.496;10.020;2023-12-14T12:47:47;5.30;99.90
26051;DHT22;13825;53.496;10.020;2023-12-14T12:50:14;5.30;99.90
26051;DHT22;13825;53.496;10.020;2023-12-14T12:52:41;5.30;99.90
26051;DHT22;13825;53.496;10.020;2023-12-14T12:55:10;5.20;99.90
26051;DHT22;13825;53.496;10.020;2023-12-14T12:57:37;5.10;99.90
26051;DHT22;13825;53.496;10.020;2023-12-14T13:00:05;5.10;99.90
26051;DHT22;13825;53.496;10.020;2023-12-14T13:02:36;5.10;99.90
26051;DHT22;13825;53.496;10.020;2023-12-14T13:05:05;5.10;99.90
26051;DHT22;13825;53.496;10.020;2023-12-14T13:07:33;5.10;99.90
26051;DHT22;13825;53.496;10.020;2023-12-14T13:10:03;5.10;99.90
26051;DHT22;13825;53.496;10.020;2023-12-14T13:12:33;5.10;99.90
26051;DHT22;13825;53.496;10.020;2023-12-14T13:15:00;5.10;99.90
26051;DHT22;13825;53.496;10.020;2023-12-14T13:17:27;5.10;99.90
26051;DHT22;13825;53.496;10.020;2023-12-14T13:19:54;5.10;99.90
26051;DHT22;13825;53.496;10.020;2023-12-14T13:22:21;5.10;99.90
26051;DHT22;13825;53.496;10.020;2023-12-14T13:24:48;5.20;99.90
26051;DHT22;13825;53.496;10.020;2023-12-14T13:27:15;5.20;99.90
26051;DHT22;13825;53.496;10.020;2023-12-14T13:29:43;5.20;99.90
26051;DHT22;13825;53.496;10.020;2023-12-14T13:32:11;5.20;99.90
26051;DHT22;13825;53.496;10.020;2023-12-14T13:34:37;5.10;99.90
26051;DHT22;13825;53.496;10.020;2023-12-14T13:37:04;5.10;99.90
26051;DHT22;13825;53.496;10.020;2023-12-14T13:39:35;5.10;99.90
26051;DHT22;13825;53.496;10.020;2023-12-14T13:42:04;5.10;99.90
26051;DHT22;13825;53.496;10.020;2023-12-14T13:44:31;5.10;99.90
26051;DHT22;13825;53.496;10.020;2023-12-14T13:47:01;5.00;99.90
26051;DHT22;13825;53.496;10.020;2023-12-14T13:49:28;5.00;99.90
26051;DHT22;13825;53.496;10.020;2023-12-14T13:51:55;5.00;99.90
26051;DHT22;13825;53.496;10.020;2023-12-14T13:54:22;5.10;99.90
26051;DHT22;13825;53.496;10.020;2023-12-14T13:56:49;5.10;99.90
26051;DHT22;13825;53.496;10.020;2023-12-14T13:59:16;5.10;99.90
26051;DHT22;13825;53.496;10.020;2023-12-14T14:01:44;5.00;99.90
26051;DHT22;13825;53.496;10.020;2023-12-14T14:04:14;5.00;99.90
26051;DHT22;13825;53.496;10.020;2023-12-14T14:06:41;4.90;99.90
26051;DHT22;13825;53.496;10.020;2023-12-14T14:09:08;4.90;99.90
26051;DHT22;13825;53.496;10.020;2023-12-14T14:11:34;4.90;99.90
26051;DHT22;13825;53.496;10.020;2023-12-14T14:14:01;4.80;99.90
26051;DHT22;13825;53.496;10.020;2023-12-14T14:16:29;4.70;99.90
26051;DHT22;13825;53.496;10.020;2023-12-14T14:18:56;4.60;99.90
26051;DHT22;13825;53.496;10.020;2023-12-14T14:21:28;4.70;99.90
26051;DHT22;13825;53.496;10.020;2023-12-14T14:24:01;4.60;99.90
26051;DHT22;13825;53.496;10.020;2023-12-14T14:26:29;4.70;99.90
26051;DHT22;13825;53.496;10.020;2023-12-14T14:28:56;4.60;99.90
26051;DHT22;13825;53.496;10.020;2023-12-14T14:31:27;4.50;99.90
26051;DHT22;13825;53.496;10.020;2023-12-14T14:33:57;4.50;99.90
26051;DHT22;13825;53.496;10.020;2023-12-14T14:36:26;4.50;99.90
26051;DHT22;13825;53.496;10.020;2023-12-14T14:38:53;4.50;99.90
26051;DHT22;13825;53.496;10.020;2023-12-14T14:41:22;4.50;99.90
26051;DHT22;13825;53.496;10.020;2023-12-14T14:43:49;4.40;99.90
26051;DHT22;13825;53.496;10.020;2023-12-14T14:46:19;4.40;99.90
26051;DHT22;13825;53.496;10.020;2023-12-14T14:48:47;4.40;99.90
26051;DHT22;13825;53.496;10.020;2023-12-14T14:51:14;4.40;99.90
26051;DHT22;13825;53.496;10.020;2023-12-14T14:53:45;4.40;99.90
26051;DHT22;13825;53.496;10.020;2023-12-14T14:56:13;4.40;99.90
26051;DHT22;13825;53.496;10.020;2023-12-14T14:58:40;4.30;99.90
26051;DHT22;13825;53.496;10.020;2023-12-14T15:01:11;4.50;99.90
26051;DHT22;13825;53.496;10.020;2023-12-14T15:03:41;4.40;99.90
26051;DHT22;13825;53.496;10.020;2023-12-14T15:06:08;4.30;99.90
26051;DHT22;13825;53.496;10.020;2023-12-14T15:08:35;4.60;99.90
26051;DHT22;13825;53.496;10.020;2023-12-14T15:11:04;4.30;99.90
26051;DHT22;13825;53.496;10.020;2023-12-14T15:13:33;4.30;99.90
26051;DHT22;13825;53.496;10.020;2023-12-14T15:16:00;4.30;99.90
26051;DHT22;13825;53.496;10.020;2023-12-14T15:18:27;4.30;99.90
26051;DHT22;13825;53.496;10.020;2023-12-14T15:20:54;4.30;99.90
26051;DHT22;13825;53.496;10.020;2023-12-14T15:23:21;4.20;99.90
26051;DHT22;13825;53.496;10.020;2023-12-14T15:25:48;4.30;99.90
26051;DHT22;13825;53.496;10.020;2023-12-14T15:28:17;4.30;99.90
26051;DHT22;13825;53.496;10.020;2023-12-14T15:30:44;4.40;99.90
26051;DHT22;13825;53.496;10.020;2023-12-14T15:33:11;4.40;99.90
26051;DHT22;13825;53.496;10.020;2023-12-14T15:35:38;4.40;99.90